createdAt,value
2022-11-24T00:01:12.107Z,100188.88
2022-11-24T00:03:38.915Z,100191.72
2022-11-24T00:06:07.632Z,100192.22
2022-11-24T00:08:35.510Z,100183.59
2022-11-24T00:11:10.852Z,100186.63
2022-11-24T00:13:40.432Z,100199.44
2022-11-24T00:16:08.360Z,100186.97
2022-11-24T00:18:35.047Z,100196.91
2022-11-24T00:21:01.621Z,100200.78
2022-11-24T00:23:28.102Z,100205.19
2022-11-24T00:25:54.548Z,100195.41
2022-11-24T00:28:21.006Z,100195.41
2022-11-24T00:30:47.469Z,100189.81
2022-11-24T00:33:13.975Z,100183.16
2022-11-24T00:35:40.394Z,100176.50
2022-11-24T00:38:06.789Z,100180.81
2022-11-24T00:40:35.116Z,100175.22
2022-11-24T00:43:01.829Z,100170.78
2022-11-24T00:45:28.233Z,100178.81
2022-11-24T00:47:54.660Z,100193.59
2022-11-24T00:50:21.264Z,100213.72
2022-11-24T00:52:47.699Z,100217.66
2022-11-24T00:55:14.162Z,100217.81
2022-11-24T00:57:40.562Z,100209.78
2022-11-24T01:00:07.877Z,100218.72
2022-11-24T01:02:34.334Z,100203.44
2022-11-24T01:05:01.549Z,100207.94
2022-11-24T01:08:24.198Z,100199.31
2022-11-24T01:10:50.637Z,100204.69
2022-11-24T01:13:17.059Z,100224.88
2022-11-24T01:15:43.522Z,100241.97
2022-11-24T01:18:10.056Z,100253.81
2022-11-24T01:20:37.570Z,100267.09
2022-11-24T01:23:04.022Z,100271.38
2022-11-24T01:25:30.426Z,100265.19
2022-11-24T01:27:56.919Z,100273.59
2022-11-24T01:30:23.394Z,100273.16
2022-11-24T01:32:49.842Z,100282.13
2022-11-24T01:35:16.342Z,100300.13
2022-11-24T01:37:42.753Z,100291.16
2022-11-24T01:40:10.026Z,100282.31
2022-11-24T01:42:53.177Z,100290.97
2022-11-24T01:45:33.455Z,100304.78
2022-11-24T01:48:04.457Z,100310.63
2022-11-24T01:50:31.471Z,100316.38
2022-11-24T01:52:58.503Z,100312.50
2022-11-24T01:55:34.651Z,100315.38
2022-11-24T01:58:23.744Z,100323.75
2022-11-24T02:00:50.952Z,100339.59
2022-11-24T02:03:23.071Z,100337.22
2022-11-24T02:06:03.983Z,100327.84
2022-11-24T02:08:39.289Z,100341.34
2022-11-24T02:11:06.094Z,100345.22
2022-11-24T02:13:36.045Z,100343.56
2022-11-24T02:16:03.740Z,100338.47
2022-11-24T02:18:30.345Z,100335.63
2022-11-24T02:20:56.980Z,100330.19
2022-11-24T02:23:45.560Z,100328.31
2022-11-24T02:26:30.673Z,100338.78
2022-11-24T02:28:57.351Z,100333.03
2022-11-24T02:31:23.924Z,100329.16
2022-11-24T02:33:50.893Z,100327.03
2022-11-24T02:36:18.339Z,100327.25
2022-11-24T02:38:44.783Z,100328.91
2022-11-24T02:41:16.268Z,100322.16
2022-11-24T02:43:47.000Z,100326.69
2022-11-24T02:46:13.465Z,100331.06
2022-11-24T02:48:39.977Z,100333.25
2022-11-24T02:51:06.461Z,100329.63
2022-11-24T02:53:32.996Z,100341.31
2022-11-24T02:55:59.434Z,100338.47
2022-11-24T02:58:25.891Z,100346.19
2022-11-24T03:00:54.264Z,100357.50
2022-11-24T03:04:16.614Z,100352.63
2022-11-24T03:06:43.408Z,100345.97
2022-11-24T03:09:11.159Z,100350.72
2022-11-24T03:11:38.424Z,100350.16
2022-11-24T03:14:05.183Z,100353.31
2022-11-24T03:16:32.103Z,100344.63
2022-11-24T03:19:00.359Z,100354.72
2022-11-24T03:21:27.191Z,100348.00
2022-11-24T03:23:53.873Z,100352.00
2022-11-24T03:26:24.395Z,100356.94
2022-11-24T03:28:55.194Z,100352.19
2022-11-24T03:31:22.402Z,100360.16
2022-11-24T03:33:49.031Z,100357.78
2022-11-24T03:36:16.714Z,100361.91
2022-11-24T03:38:43.397Z,100355.94
2022-11-24T03:41:10.450Z,100349.13
2022-11-24T03:43:43.217Z,100346.19
2022-11-24T03:46:10.629Z,100344.72
2022-11-24T03:48:37.201Z,100350.31
2022-11-24T03:51:03.853Z,100351.38
2022-11-24T03:53:31.792Z,100362.13
2022-11-24T03:55:58.249Z,100361.72
2022-11-24T03:58:25.598Z,100344.66
2022-11-24T04:00:53.596Z,100342.75
2022-11-24T04:03:20.549Z,100363.31
2022-11-24T04:05:47.443Z,100368.06
2022-11-24T04:08:14.605Z,100373.22
2022-11-24T04:10:41.415Z,100379.38
2022-11-24T04:13:14.265Z,100371.75
2022-11-24T04:15:41.830Z,100387.91
2022-11-24T04:18:09.911Z,100389.38
2022-11-24T04:20:37.180Z,100381.00
2022-11-24T04:23:04.188Z,100387.53
2022-11-24T04:25:30.644Z,100391.16
2022-11-24T04:27:57.323Z,100396.31
2022-11-24T04:30:25.377Z,100391.97
2022-11-24T04:32:51.794Z,100400.31
2022-11-24T04:35:19.432Z,100409.75
2022-11-24T04:37:45.884Z,100414.09
2022-11-24T04:40:13.292Z,100419.19
2022-11-24T04:42:39.977Z,100426.84
2022-11-24T04:45:07.631Z,100439.03
2022-11-24T04:47:34.439Z,100438.16
2022-11-24T04:50:00.895Z,100438.53
2022-11-24T04:52:29.653Z,100439.94
2022-11-24T04:54:56.132Z,100451.00
2022-11-24T04:57:25.174Z,100441.78
2022-11-24T04:59:52.669Z,100449.41
2022-11-24T05:02:19.223Z,100448.59
2022-11-24T05:04:46.117Z,100456.94
2022-11-24T05:07:18.410Z,100468.91
2022-11-24T05:10:04.636Z,100480.78
2022-11-24T05:12:31.409Z,100488.09
2022-11-24T05:15:02.276Z,100481.69
2022-11-24T05:17:31.419Z,100499.47
2022-11-24T05:19:58.317Z,100497.88
2022-11-24T05:22:25.288Z,100495.88
2022-11-24T05:24:51.822Z,100504.63
2022-11-24T05:27:18.309Z,100505.72
2022-11-24T05:29:44.767Z,100511.16
2022-11-24T05:32:11.206Z,100509.75
2022-11-24T05:34:37.641Z,100518.09
2022-11-24T05:37:04.549Z,100522.31
2022-11-24T05:39:37.277Z,100516.69
2022-11-24T05:42:25.991Z,100519.59
2022-11-24T05:44:53.270Z,100515.06
2022-11-24T05:47:20.237Z,100515.44
2022-11-24T05:49:46.853Z,100517.25
2022-11-24T05:52:13.574Z,100523.97
2022-11-24T05:54:39.999Z,100528.50
2022-11-24T05:57:06.447Z,100533.75
2022-11-24T05:59:33.012Z,100538.47
2022-11-24T06:01:59.909Z,100534.63
2022-11-24T06:04:26.499Z,100532.09
2022-11-24T06:06:52.907Z,100538.78
2022-11-24T06:09:19.333Z,100534.78
2022-11-24T06:11:47.675Z,100533.00
2022-11-24T06:14:14.484Z,100541.16
2022-11-24T06:16:40.949Z,100555.53
2022-11-24T06:19:08.877Z,100549.53
2022-11-24T06:21:35.428Z,100543.56
2022-11-24T06:24:02.419Z,100543.56
2022-11-24T06:26:28.932Z,100542.78
2022-11-24T06:28:55.350Z,100547.31
2022-11-24T06:31:21.868Z,100544.91
2022-11-24T06:33:48.522Z,100544.94
2022-11-24T06:36:15.444Z,100557.25
2022-11-24T06:38:41.978Z,100561.59
2022-11-24T06:41:12.650Z,100577.19
2022-11-24T06:43:39.426Z,100578.28
2022-11-24T06:46:06.274Z,100579.59
2022-11-24T06:48:33.242Z,100587.91
2022-11-24T06:51:08.253Z,100592.81
2022-11-24T06:53:39.986Z,100594.09
2022-11-24T06:56:15.316Z,100604.47
2022-11-24T06:58:47.291Z,100600.44
2022-11-24T07:01:22.080Z,100606.81
2022-11-24T07:03:49.676Z,100599.72
2022-11-24T07:06:17.377Z,100604.06
2022-11-24T07:08:44.179Z,100601.16
2022-11-24T07:11:25.323Z,100626.94
2022-11-24T07:13:55.104Z,100627.66
2022-11-24T07:16:25.788Z,100635.81
2022-11-24T07:18:53.168Z,100642.72
2022-11-24T07:21:21.047Z,100662.84
2022-11-24T07:23:52.353Z,100680.13
2022-11-24T07:26:19.189Z,100671.22
2022-11-24T07:28:45.677Z,100675.00
2022-11-24T07:31:24.952Z,100673.88
2022-11-24T07:33:53.513Z,100672.06
2022-11-24T07:36:20.609Z,100675.13
2022-11-24T07:38:47.159Z,100671.47
2022-11-24T07:41:15.995Z,100672.66
2022-11-24T07:43:42.554Z,100669.47
2022-11-24T07:46:12.727Z,100690.94
2022-11-24T07:48:39.772Z,100691.13
2022-11-24T07:51:07.144Z,100696.63
2022-11-24T07:53:34.503Z,100699.31
2022-11-24T07:56:03.520Z,100695.38
2022-11-24T07:58:33.345Z,100694.00
2022-11-24T08:01:00.351Z,100701.09
2022-11-24T08:03:26.927Z,100691.84
2022-11-24T08:06:22.175Z,100699.84
2022-11-24T08:08:41.443Z,100698.94
2022-11-24T08:11:10.537Z,100700.50
2022-11-24T08:13:37.460Z,100698.28
2022-11-24T08:16:09.318Z,100689.94
2022-11-24T08:18:38.696Z,100699.16
2022-11-24T08:21:05.653Z,100710.81
2022-11-24T08:23:32.273Z,100722.59
2022-11-24T08:26:04.822Z,100717.81
2022-11-24T08:28:32.371Z,100709.56
2022-11-24T08:31:12.069Z,100711.13
2022-11-24T08:33:39.396Z,100710.69
2022-11-24T08:36:08.375Z,100708.53
2022-11-24T08:38:35.000Z,100716.25
2022-11-24T08:41:03.502Z,100719.06
2022-11-24T08:43:30.035Z,100708.78
2022-11-24T08:46:00.562Z,100717.13
2022-11-24T08:48:27.544Z,100721.59
2022-11-24T08:50:54.072Z,100718.13
2022-11-24T08:53:20.525Z,100723.75
2022-11-24T08:55:46.985Z,100714.41
2022-11-24T08:58:13.465Z,100717.59
2022-11-24T09:00:39.955Z,100723.19
2022-11-24T09:03:06.361Z,100713.66
2022-11-24T09:08:20.640Z,100713.84
2022-11-24T09:10:47.219Z,100706.44
2022-11-24T09:13:13.959Z,100716.72
2022-11-24T09:15:40.931Z,100723.22
2022-11-24T09:18:07.457Z,100729.72
2022-11-24T09:20:33.901Z,100727.66
2022-11-24T09:23:00.427Z,100722.72
2022-11-24T09:25:27.214Z,100723.25
2022-11-24T09:27:54.520Z,100735.78
2022-11-24T09:30:21.116Z,100733.59
2022-11-24T09:32:47.636Z,100740.66
2022-11-24T09:35:14.477Z,100736.19
2022-11-24T09:37:41.329Z,100740.63
2022-11-24T09:40:12.961Z,100736.88
2022-11-24T09:42:53.551Z,100733.78
2022-11-24T09:46:03.454Z,100740.28
2022-11-24T09:48:36.323Z,100759.19
2022-11-24T09:51:04.519Z,100754.19
2022-11-24T09:53:36.937Z,100750.75
2022-11-24T09:56:28.407Z,100757.81
2022-11-24T09:59:02.674Z,100770.53
2022-11-24T10:01:42.061Z,100779.34
2022-11-24T10:04:28.225Z,100777.25
2022-11-24T10:07:14.743Z,100777.84
2022-11-24T10:10:10.915Z,100783.59
2022-11-24T10:12:55.555Z,100779.84
2022-11-24T10:15:43.996Z,100775.50
2022-11-24T10:18:31.486Z,100760.44
2022-11-24T10:21:16.664Z,100763.81
2022-11-24T10:23:57.584Z,100745.13
2022-11-24T10:26:27.011Z,100744.13
2022-11-24T10:28:55.667Z,100755.28
2022-11-24T10:31:32.928Z,100763.13
2022-11-24T10:34:05.941Z,100765.69
2022-11-24T10:36:47.070Z,100762.97
2022-11-24T10:39:21.742Z,100760.56
2022-11-24T10:42:03.551Z,100745.94
2022-11-24T10:44:30.013Z,100744.91
2022-11-24T10:46:56.465Z,100737.34
2022-11-24T10:49:28.227Z,100744.31
2022-11-24T10:52:16.456Z,100746.53
2022-11-24T10:55:04.115Z,100747.16
2022-11-24T10:57:33.053Z,100750.28
2022-11-24T11:00:00.533Z,100744.84
2022-11-24T11:02:40.296Z,100748.13
2022-11-24T11:05:41.642Z,100747.78
2022-11-24T11:08:14.256Z,100755.56
2022-11-24T11:10:45.370Z,100754.00
2022-11-24T11:13:28.357Z,100755.19
2022-11-24T11:15:56.461Z,100753.91
2022-11-24T11:18:30.214Z,100746.59
2022-11-24T11:21:01.582Z,100741.72
2022-11-24T11:23:32.358Z,100747.44
2022-11-24T11:26:37.775Z,100746.97
2022-11-24T11:35:05.408Z,100741.19
2022-11-24T11:37:33.476Z,100745.72
2022-11-24T11:40:00.546Z,100740.78
2022-11-24T11:43:00.575Z,100741.19
2022-11-24T11:45:34.872Z,100738.63
2022-11-24T11:48:01.310Z,100743.69
2022-11-24T11:50:39.226Z,100744.16
2022-11-24T11:53:34.392Z,100742.78
2022-11-24T11:56:28.455Z,100751.22
2022-11-24T11:59:32.245Z,100755.13
2022-11-24T12:02:39.143Z,100743.22
2022-11-24T12:05:23.992Z,100744.72
2022-11-24T12:08:16.010Z,100740.03
2022-11-24T12:11:14.538Z,100737.63
2022-11-24T12:14:16.988Z,100740.09
2022-11-24T12:17:13.472Z,100741.69
2022-11-24T12:19:58.659Z,100745.66
2022-11-24T12:22:48.208Z,100743.13
2022-11-24T12:25:27.225Z,100739.28
2022-11-24T12:28:20.049Z,100727.69
2022-11-24T12:31:04.175Z,100730.56
2022-11-24T12:33:36.600Z,100722.84
2022-11-24T12:36:07.993Z,100730.84
2022-11-24T12:39:00.046Z,100721.31
2022-11-24T12:41:43.124Z,100728.25
2022-11-24T12:44:30.665Z,100722.84
2022-11-24T12:47:08.916Z,100723.91
2022-11-24T12:49:48.608Z,100726.72
2022-11-24T12:52:31.536Z,100725.47
2022-11-24T12:54:59.978Z,100730.34
2022-11-24T12:57:33.525Z,100735.38
2022-11-24T13:00:16.585Z,100746.03
2022-11-24T13:03:24.652Z,100742.06
2022-11-24T13:06:01.077Z,100743.84
2022-11-24T13:08:28.939Z,100746.81
2022-11-24T13:11:22.732Z,100745.13
2022-11-24T13:14:22.745Z,100739.34
2022-11-24T13:19:38.774Z,100729.13
2022-11-24T13:22:07.877Z,100726.69
2022-11-24T13:24:36.945Z,100730.84
2022-11-24T13:27:15.591Z,100729.59
2022-11-24T13:29:46.769Z,100727.78
2022-11-24T13:32:14.405Z,100725.09
2022-11-24T13:34:41.094Z,100734.44
2022-11-24T13:37:31.575Z,100721.47
2022-11-24T13:40:22.762Z,100724.16
2022-11-24T13:42:58.004Z,100723.25
2022-11-24T13:45:40.075Z,100719.78
2022-11-24T13:48:19.334Z,100720.03
2022-11-24T13:50:53.258Z,100716.97
2022-11-24T13:53:41.678Z,100714.16
2022-11-24T13:56:14.263Z,100712.09
2022-11-24T13:58:44.112Z,100700.75
2022-11-24T14:01:19.391Z,100700.75
2022-11-24T14:04:28.706Z,100695.00
2022-11-24T14:06:47.963Z,100698.19
2022-11-24T14:09:20.204Z,100699.59
2022-11-24T14:12:13.514Z,100703.06
2022-11-24T14:14:41.314Z,100703.97
2022-11-24T14:17:10.656Z,100703.97
2022-11-24T14:19:37.315Z,100707.72
2022-11-24T14:22:03.842Z,100706.19
2022-11-24T14:24:39.698Z,100711.69
2022-11-24T14:27:14.412Z,100716.72
2022-11-24T14:29:57.568Z,100709.97
2022-11-24T14:32:24.189Z,100709.75
2022-11-24T14:34:52.048Z,100711.97
2022-11-24T14:37:21.707Z,100717.38
2022-11-24T14:39:48.612Z,100719.28
2022-11-24T14:42:29.807Z,100720.03
2022-11-24T14:45:02.949Z,100721.56
2022-11-24T14:47:33.814Z,100710.88
2022-11-24T14:50:16.228Z,100709.09
2022-11-24T14:52:55.117Z,100716.63
2022-11-24T14:55:32.856Z,100725.09
2022-11-24T14:57:59.975Z,100729.94
2022-11-24T15:00:31.963Z,100736.50
2022-11-24T15:03:01.690Z,100735.72
2022-11-24T15:06:04.018Z,100739.13
2022-11-24T15:08:42.191Z,100738.00
2022-11-24T15:11:08.877Z,100731.75
2022-11-24T15:13:38.284Z,100731.34
2022-11-24T15:16:18.339Z,100725.78
2022-11-24T15:18:49.177Z,100737.78
2022-11-24T15:21:19.513Z,100735.69
2022-11-24T15:24:15.884Z,100742.50
2022-11-24T15:26:42.759Z,100737.38
2022-11-24T15:29:13.001Z,100742.25
2022-11-24T15:31:41.225Z,100748.19
2022-11-24T15:34:12.589Z,100747.22
2022-11-24T15:36:39.024Z,100756.47
2022-11-24T15:39:05.463Z,100754.56
2022-11-24T15:41:33.459Z,100761.88
2022-11-24T15:44:00.124Z,100759.22
2022-11-24T15:46:38.009Z,100769.69
2022-11-24T15:49:05.478Z,100772.53
2022-11-24T15:51:32.257Z,100770.00
2022-11-24T15:54:01.178Z,100764.75
2022-11-24T15:56:34.375Z,100768.69
2022-11-24T15:59:01.711Z,100762.81
2022-11-24T16:01:31.909Z,100769.63
2022-11-24T16:03:58.470Z,100776.44
2022-11-24T16:06:25.687Z,100765.84
2022-11-24T16:08:53.855Z,100773.28
2022-11-24T16:11:20.777Z,100772.63
2022-11-24T16:13:52.316Z,100777.75
2022-11-24T16:16:20.901Z,100774.63
2022-11-24T16:18:47.394Z,100772.94
2022-11-24T16:21:13.857Z,100773.69
2022-11-24T16:23:40.511Z,100776.56
2022-11-24T16:26:07.217Z,100779.25
2022-11-24T16:28:33.739Z,100782.56
2022-11-24T16:31:00.212Z,100775.50
2022-11-24T16:33:28.888Z,100772.00
2022-11-24T16:35:55.346Z,100787.66
2022-11-24T16:38:21.820Z,100798.69
2022-11-24T16:40:56.351Z,100806.34
2022-11-24T16:43:24.311Z,100812.22
2022-11-24T16:46:15.966Z,100815.94
2022-11-24T16:48:43.379Z,100826.78
2022-11-24T16:51:13.520Z,100825.59
2022-11-24T16:53:40.517Z,100828.56
2022-11-24T16:56:07.842Z,100830.38
2022-11-24T16:58:37.930Z,100824.19
2022-11-24T17:01:10.425Z,100828.50
2022-11-24T17:03:37.592Z,100830.59
2022-11-24T17:06:09.879Z,100839.03
2022-11-24T17:08:38.099Z,100838.13
2022-11-24T17:11:15.531Z,100846.06
2022-11-24T17:13:42.848Z,100855.50
2022-11-24T17:16:12.518Z,100854.44
2022-11-24T17:18:39.855Z,100852.00
2022-11-24T17:21:10.177Z,100855.63
2022-11-24T17:23:37.304Z,100858.50
2022-11-24T17:26:11.253Z,100856.34
2022-11-24T17:28:37.797Z,100865.09
2022-11-24T17:31:32.108Z,100866.16
2022-11-24T17:34:00.189Z,100880.22
2022-11-24T17:36:27.951Z,100887.97
2022-11-24T17:38:54.512Z,100872.28
2022-11-24T17:41:21.739Z,100873.06
2022-11-24T17:43:52.718Z,100874.28
2022-11-24T17:46:19.765Z,100876.25
2022-11-24T17:48:46.948Z,100877.81
2022-11-24T17:51:16.875Z,100884.59
2022-11-24T17:53:46.614Z,100895.22
2022-11-24T17:56:15.283Z,100888.63
2022-11-24T17:58:43.278Z,100889.00
2022-11-24T18:01:11.415Z,100893.13
2022-11-24T18:03:41.689Z,100898.63
2022-11-24T18:06:10.895Z,100896.06
2022-11-24T18:08:39.451Z,100889.06
2022-11-24T18:11:08.276Z,100895.16
2022-11-24T18:13:55.795Z,100903.22
2022-11-24T18:16:22.048Z,100899.50
2022-11-24T18:18:50.448Z,100897.03
2022-11-24T18:21:17.837Z,100893.09
2022-11-24T18:23:44.811Z,100898.34
2022-11-24T18:26:14.873Z,100899.34
2022-11-24T18:28:42.859Z,100902.38
2022-11-24T18:31:14.532Z,100907.72
2022-11-24T18:33:43.227Z,100908.56
2022-11-24T18:36:16.077Z,100904.84
2022-11-24T18:38:42.721Z,100901.94
2022-11-24T18:41:10.863Z,100911.00
2022-11-24T18:43:38.173Z,100915.09
2022-11-24T18:46:10.597Z,100919.84
2022-11-24T18:48:37.115Z,100927.38
2022-11-24T18:51:04.037Z,100933.94
2022-11-24T18:53:30.582Z,100926.31
2022-11-24T18:55:58.896Z,100930.97
2022-11-24T18:58:30.019Z,100927.19
2022-11-24T19:01:10.418Z,100927.78
2022-11-24T19:03:48.683Z,100927.25
2022-11-24T19:06:24.646Z,100924.47
2022-11-24T19:08:54.233Z,100925.81
2022-11-24T19:11:29.303Z,100924.44
2022-11-24T19:13:56.798Z,100928.28
2022-11-24T19:16:24.178Z,100932.09
2022-11-24T19:18:53.896Z,100932.28
2022-11-24T19:21:20.656Z,100934.47
2022-11-24T19:23:47.097Z,100941.78
2022-11-24T19:26:13.624Z,100939.25
2022-11-24T19:28:40.096Z,100942.94
2022-11-24T19:31:09.039Z,100947.66
2022-11-24T19:33:35.846Z,100950.22
2022-11-24T19:36:04.251Z,100954.47
2022-11-24T19:38:32.596Z,100965.94
2022-11-24T19:41:13.035Z,100965.97
2022-11-24T19:43:40.530Z,100963.44
2022-11-24T19:46:09.619Z,100965.78
2022-11-24T19:48:38.310Z,100960.88
2022-11-24T19:51:08.226Z,100966.25
2022-11-24T19:53:34.853Z,100978.59
2022-11-24T19:56:04.212Z,100968.38
2022-11-24T19:58:31.275Z,100976.03
2022-11-24T20:01:24.677Z,100970.94
2022-11-24T20:03:55.788Z,100973.53
2022-11-24T20:06:22.214Z,100968.47
2022-11-24T20:08:48.717Z,100975.41
2022-11-24T20:11:17.074Z,100973.25
2022-11-24T20:13:45.257Z,100979.63
2022-11-24T20:16:17.721Z,100980.34
2022-11-24T20:18:46.778Z,100989.63
2022-11-24T20:21:18.641Z,100992.16
2022-11-24T20:23:51.100Z,100995.25
2022-11-24T20:26:20.073Z,100996.19
2022-11-24T20:28:47.448Z,100986.53
2022-11-24T20:31:17.557Z,100989.47
2022-11-24T20:33:44.867Z,100986.38
2022-11-24T20:36:13.893Z,100986.22
2022-11-24T20:38:42.315Z,100990.97
2022-11-24T20:41:14.070Z,100994.25
2022-11-24T20:43:42.202Z,100987.34
2022-11-24T20:46:14.514Z,100992.03
2022-11-24T20:48:41.403Z,101010.63
2022-11-24T20:51:13.347Z,101003.34
2022-11-24T20:53:40.623Z,101005.72
2022-11-24T20:56:09.920Z,101010.44
2022-11-24T20:58:37.068Z,101011.72
2022-11-24T21:01:07.891Z,101000.63
2022-11-24T21:03:38.439Z,101011.72
2022-11-24T21:06:10.232Z,101029.16
2022-11-24T21:08:38.208Z,101029.34
2022-11-24T21:11:06.656Z,101018.66
2022-11-24T21:13:35.664Z,101016.13
2022-11-24T21:16:19.681Z,101012.09
2022-11-24T21:18:50.655Z,101015.34
2022-11-24T21:21:19.344Z,101029.56
2022-11-24T21:23:46.869Z,101030.25
2022-11-24T21:26:16.843Z,101030.25
2022-11-24T21:28:45.480Z,101030.63
2022-11-24T21:31:15.160Z,101020.78
2022-11-24T21:33:45.280Z,101027.88
2022-11-24T21:36:14.539Z,101036.06
2022-11-24T21:38:42.597Z,101032.41
2022-11-24T21:41:10.926Z,101038.00
2022-11-24T21:43:38.559Z,101045.06
2022-11-24T21:46:10.620Z,101039.66
2022-11-24T21:48:38.515Z,101044.75
2022-11-24T21:51:07.451Z,101042.94
2022-11-24T21:53:36.081Z,101042.09
2022-11-24T21:56:07.284Z,101039.38
2022-11-24T21:58:34.013Z,101041.53
2022-11-24T22:01:06.094Z,101033.50
2022-11-24T22:03:32.546Z,101036.41
2022-11-24T22:06:01.033Z,101039.50
2022-11-24T22:08:29.262Z,101031.28
2022-11-24T22:11:07.658Z,101032.16
2022-11-24T22:13:34.777Z,101034.56
2022-11-24T22:16:02.473Z,101023.47
2022-11-24T22:18:34.676Z,101018.19
2022-11-24T22:21:04.954Z,101022.16
2022-11-24T22:23:32.614Z,101027.41
2022-11-24T22:26:19.161Z,101029.25
2022-11-24T22:28:46.237Z,101027.06
2022-11-24T22:31:14.450Z,101023.28
2022-11-24T22:33:41.337Z,101034.94
2022-11-24T22:36:08.342Z,101030.91
2022-11-24T22:38:35.058Z,101024.16
2022-11-24T22:41:08.449Z,101034.91
2022-11-24T22:43:36.697Z,101024.16
2022-11-24T22:46:08.026Z,101028.13
2022-11-24T22:48:34.934Z,101036.31
2022-11-24T22:51:06.218Z,101026.66
2022-11-24T22:53:33.327Z,101031.75
2022-11-24T22:56:04.460Z,101033.19
2022-11-24T22:58:32.871Z,101027.53
2022-11-24T23:01:09.057Z,101024.59
2022-11-24T23:03:36.612Z,101024.09
2022-11-24T23:06:05.503Z,101019.53
2022-11-24T23:08:34.008Z,101015.00
2022-11-24T23:11:04.023Z,101019.53
2022-11-24T23:13:30.752Z,101013.69
2022-11-24T23:16:06.637Z,101001.66
2022-11-24T23:18:33.695Z,101012.94
2022-11-24T23:21:07.337Z,101016.97
2022-11-24T23:23:34.457Z,101010.25
2022-11-24T23:26:02.942Z,101011.34
2022-11-24T23:28:29.443Z,101015.34
2022-11-24T23:31:10.710Z,101017.38
2022-11-24T23:33:37.801Z,101023.03
2022-11-24T23:36:09.894Z,101027.06
2022-11-24T23:38:36.894Z,101024.72
2022-11-24T23:41:06.143Z,101029.84
2022-11-24T23:43:34.086Z,101043.81
2022-11-24T23:46:08.753Z,101044.91
2022-11-24T23:48:36.467Z,101037.81
2022-11-24T23:51:12.260Z,101042.03
2022-11-24T23:53:39.328Z,101038.22
2022-11-24T23:56:05.908Z,101042.25
2022-11-24T23:58:33.281Z,101045.53
